Dublin, Ireland
Current Conditions -  °F | °C
As of 12:00 PM on Monday 22 Dec 2014 (Local Time) from EIDW Reporting Station
Light Rain Light Rain  
Wind Chill: 52°   Ceiling: 1000
Heat Index: 52°   Visibility: 2.5mi
Dew Point: 50°   Wind: 26mph
Humidity: 94%   Direction: 240°WSW
Pressure: 29.8"   Gusts: NA
Location:  53.33°N, 6.25°W
Report Text: EIDW 221200Z 24023KT 4000 -RADZ FEW005 BKN010 BKN016 11/10 Q1009 TEMPO BKN007
Loading
Personal Weather Stations






























Interactive Weather Map New forecast layout! Learn more

10-Day Weather Forecast

Advertisements
Track Severe Weather on mobile